createdAt,value
2018-04-17T00:00:40.680Z,19.50
2018-04-17T00:03:11.358Z,19.07
2018-04-17T00:05:42.845Z,18.90
2018-04-17T00:08:13.576Z,19.10
2018-04-17T00:10:44.661Z,17.40
2018-04-17T00:13:16.703Z,19.80
2018-04-17T00:15:47.843Z,20.47
2018-04-17T00:18:18.561Z,24.67
2018-04-17T00:20:49.670Z,22.90
2018-04-17T00:23:20.385Z,24.87
2018-04-17T00:25:51.108Z,23.20
2018-04-17T00:28:22.160Z,19.70
2018-04-17T00:30:53.192Z,19.70
2018-04-17T00:33:24.164Z,20.93
2018-04-17T00:35:55.476Z,22.00
2018-04-17T00:38:26.559Z,19.67
2018-04-17T00:40:57.580Z,21.87
2018-04-17T00:43:28.297Z,23.10
2018-04-17T00:45:59.119Z,21.30
2018-04-17T00:48:30.581Z,21.33
2018-04-17T00:51:01.684Z,21.43
2018-04-17T00:53:41.270Z,22.10
2018-04-17T00:56:12.363Z,23.10
2018-04-17T00:58:44.043Z,24.03
2018-04-17T01:01:15.721Z,22.37
2018-04-17T01:03:46.539Z,18.67
2018-04-17T01:06:18.700Z,16.67
2018-04-17T01:08:50.179Z,18.20
2018-04-17T01:11:22.080Z,19.10
2018-04-17T01:13:52.800Z,21.30
2018-04-17T01:16:23.642Z,21.83
2018-04-17T01:18:54.687Z,22.20
2018-04-17T01:21:25.914Z,21.80
2018-04-17T01:23:56.649Z,22.57
2018-04-17T01:26:27.828Z,22.53
2018-04-17T01:28:58.673Z,21.90
2018-04-17T01:31:30.488Z,23.87
2018-04-17T01:34:01.389Z,21.73
2018-04-17T01:36:32.384Z,23.07
2018-04-17T01:39:03.361Z,22.17
2018-04-17T01:41:34.788Z,23.37
2018-04-17T01:44:06.379Z,23.23
2018-04-17T01:46:37.535Z,25.90
2018-04-17T01:49:08.300Z,25.03
2018-04-17T01:51:39.204Z,23.27
2018-04-17T01:54:09.911Z,22.67
2018-04-17T01:56:40.954Z,23.30
2018-04-17T01:59:11.638Z,22.77
2018-04-17T02:01:51.726Z,23.30
2018-04-17T02:04:24.310Z,23.23
2018-04-17T02:06:55.135Z,24.10
2018-04-17T02:09:26.899Z,22.27
2018-04-17T02:11:57.610Z,23.23
2018-04-17T02:14:28.372Z,21.67
2018-04-17T02:16:59.406Z,23.13
2018-04-17T02:19:31.065Z,22.23
2018-04-17T02:22:02.140Z,22.90
2018-04-17T02:24:32.809Z,22.97
2018-04-17T02:27:04.257Z,22.70
2018-04-17T02:29:35.244Z,25.27
2018-04-17T02:32:06.242Z,27.60
2018-04-17T02:34:37.686Z,25.77
2018-04-17T02:37:08.644Z,27.13
2018-04-17T02:39:40.089Z,28.90
2018-04-17T02:42:11.958Z,31.03
2018-04-17T02:44:42.957Z,24.93
2018-04-17T02:47:14.411Z,23.27
2018-04-17T02:49:45.105Z,25.43
2018-04-17T02:52:16.204Z,24.20
2018-04-17T02:54:47.658Z,24.73
2018-04-17T02:57:19.593Z,23.43
2018-04-17T02:59:51.589Z,24.03
2018-04-17T03:02:22.428Z,24.63
2018-04-17T03:04:53.114Z,21.27
2018-04-17T03:07:24.256Z,20.30
2018-04-17T03:09:56.276Z,19.80
2018-04-17T03:12:27.817Z,19.70
2018-04-17T03:14:59.402Z,19.23
2018-04-17T03:17:31.240Z,17.93
2018-04-17T03:20:02.446Z,17.30
2018-04-17T03:22:33.889Z,18.90
2018-04-17T03:25:05.380Z,18.87
2018-04-17T03:27:36.348Z,19.73
2018-04-17T03:30:07.845Z,18.43
2018-04-17T03:32:39.913Z,17.63
2018-04-17T03:35:11.381Z,17.97
2018-04-17T03:37:42.063Z,20.47
2018-04-17T03:40:12.751Z,19.97
2018-04-17T03:42:43.853Z,20.83
2018-04-17T03:45:14.716Z,20.67
2018-04-17T03:47:45.977Z,20.33
2018-04-17T03:50:16.676Z,18.70
2018-04-17T03:52:48.228Z,20.13
2018-04-17T03:55:19.692Z,20.70
2018-04-17T03:57:50.409Z,19.50
2018-04-17T04:00:22.692Z,21.87
2018-04-17T04:02:54.889Z,20.80
2018-04-17T04:05:26.176Z,20.27
2018-04-17T04:07:57.625Z,19.77
2018-04-17T04:10:29.120Z,18.73
2018-04-17T04:13:00.269Z,19.13
2018-04-17T04:15:30.984Z,20.80
2018-04-17T04:20:17.161Z,21.40
2018-04-17T04:24:59.800Z,22.63
2018-04-17T04:27:30.871Z,22.20
2018-04-17T04:30:01.835Z,21.47
2018-04-17T04:32:34.036Z,21.67
2018-04-17T04:35:04.801Z,24.77
2018-04-17T04:37:35.692Z,25.47
2018-04-17T04:40:06.360Z,25.07
2018-04-17T04:42:37.056Z,24.97
2018-04-17T04:45:08.176Z,26.13
2018-04-17T04:47:39.225Z,23.00
2018-04-17T04:50:10.138Z,22.47
2018-04-17T04:52:40.988Z,23.50
2018-04-17T04:55:11.692Z,24.07
2018-04-17T04:57:42.433Z,24.77
2018-04-17T05:00:13.979Z,26.10
2018-04-17T05:02:44.767Z,24.40
2018-04-17T05:05:16.330Z,23.67
2018-04-17T05:07:47.804Z,25.17
2018-04-17T05:10:18.821Z,24.63
2018-04-17T05:12:49.683Z,24.30
2018-04-17T05:15:20.371Z,57.00
2018-04-17T05:17:53.465Z,26.83
2018-04-17T05:20:24.515Z,28.67
2018-04-17T05:22:56.313Z,31.07
2018-04-17T05:25:27.449Z,32.90
2018-04-17T05:27:58.600Z,30.93
2018-04-17T05:30:29.657Z,37.53
2018-04-17T05:33:01.028Z,33.03
2018-04-17T05:35:32.213Z,33.83
2018-04-17T05:38:03.319Z,34.47
2018-04-17T05:40:34.696Z,33.83
2018-04-17T05:43:06.585Z,35.10
2018-04-17T05:45:38.340Z,37.53
2018-04-17T05:48:09.774Z,40.83
2018-04-17T05:51:45.206Z,40.73
2018-04-17T05:54:16.768Z,42.30
2018-04-17T05:56:47.652Z,44.23
2018-04-17T05:59:19.341Z,45.07
2018-04-17T06:01:51.456Z,48.10
2018-04-17T06:04:22.129Z,48.47
2018-04-17T06:06:52.856Z,54.57
2018-04-17T06:09:23.723Z,51.63
2018-04-17T06:11:58.943Z,54.13
2018-04-17T06:14:50.674Z,56.03
2018-04-17T06:17:35.820Z,58.53
2018-04-17T06:20:08.639Z,54.90
2018-04-17T06:22:42.159Z,54.77
2018-04-17T06:25:17.584Z,53.00
2018-04-17T06:27:48.712Z,51.73
2018-04-17T06:30:20.056Z,46.77
2018-04-17T06:32:51.652Z,43.57
2018-04-17T06:35:23.903Z,37.57
2018-04-17T06:37:54.585Z,34.50
2018-04-17T06:40:25.948Z,33.93
2018-04-17T06:42:57.428Z,30.53
2018-04-17T06:45:28.914Z,29.60
2018-04-17T06:48:01.039Z,27.33
2018-04-17T06:50:31.955Z,23.37
2018-04-17T06:53:04.426Z,22.37
2018-04-17T06:55:35.572Z,22.53
2018-04-17T06:58:07.626Z,17.17
2018-04-17T07:00:40.320Z,13.80
2018-04-17T07:03:12.217Z,11.73
2018-04-17T07:05:43.229Z,12.83
2018-04-17T07:08:15.319Z,10.43
2018-04-17T07:10:46.376Z,9.37
2018-04-17T07:13:17.984Z,8.97
2018-04-17T07:15:50.354Z,9.10
2018-04-17T07:18:21.373Z,8.47
2018-04-17T07:20:53.879Z,9.37
2018-04-17T07:23:25.336Z,10.17
2018-04-17T07:25:56.636Z,8.23
2018-04-17T07:28:27.336Z,8.90
2018-04-17T07:30:58.701Z,8.30
2018-04-17T07:33:29.669Z,8.03
2018-04-17T07:36:02.272Z,8.53
2018-04-17T07:38:35.801Z,8.20
2018-04-17T07:41:07.545Z,8.60
2018-04-17T07:43:38.528Z,7.90
2018-04-17T07:46:11.796Z,7.53
2018-04-17T07:48:52.245Z,7.67
2018-04-17T07:51:24.461Z,7.93
2018-04-17T07:53:56.448Z,6.80
2018-04-17T07:56:27.508Z,7.80
2018-04-17T07:58:58.680Z,7.77
2018-04-17T08:01:29.857Z,6.77
2018-04-17T08:04:01.649Z,7.20
2018-04-17T08:06:32.449Z,7.50
2018-04-17T08:09:04.352Z,6.97
2018-04-17T08:11:35.879Z,8.00
2018-04-17T08:14:06.591Z,7.10
2018-04-17T08:16:40.544Z,6.70
2018-04-17T08:19:11.754Z,7.87
2018-04-17T08:21:45.472Z,6.27
2018-04-17T08:24:17.064Z,6.77
2018-04-17T08:26:48.849Z,6.20
2018-04-17T08:29:20.352Z,5.43
2018-04-17T08:31:51.118Z,5.27
2018-04-17T08:34:22.212Z,6.17
2018-04-17T08:36:52.994Z,5.50
2018-04-17T08:39:23.670Z,5.63
2018-04-17T08:41:55.476Z,5.20
2018-04-17T08:44:26.167Z,4.93
2018-04-17T08:46:58.343Z,4.67
2018-04-17T08:49:29.564Z,5.70
2018-04-17T08:52:00.436Z,5.30
2018-04-17T08:54:31.193Z,5.80
2018-04-17T08:57:02.500Z,5.97
2018-04-17T08:59:33.210Z,5.00
2018-04-17T09:02:04.097Z,5.07
2018-04-17T09:04:35.452Z,4.80
2018-04-17T09:07:07.113Z,5.20
2018-04-17T09:09:38.024Z,4.83
2018-04-17T09:12:08.995Z,4.30
2018-04-17T09:14:39.725Z,4.60
2018-04-17T09:17:10.447Z,4.60
2018-04-17T09:19:42.298Z,4.53
2018-04-17T09:22:13.600Z,5.20
2018-04-17T09:24:45.083Z,5.27
2018-04-17T09:27:16.016Z,3.90
2018-04-17T09:29:46.696Z,4.07
2018-04-17T09:32:17.915Z,3.87
2018-04-17T09:34:49.034Z,4.07
2018-04-17T09:37:19.868Z,3.10
2018-04-17T09:39:50.735Z,3.57
2018-04-17T09:42:21.416Z,4.50
2018-04-17T09:44:53.229Z,3.77
2018-04-17T09:47:23.918Z,4.20
2018-04-17T09:49:54.690Z,3.60
2018-04-17T09:52:26.521Z,4.17
2018-04-17T09:54:57.185Z,4.20
2018-04-17T09:57:27.868Z,3.97
2018-04-17T09:59:58.644Z,4.60
2018-04-17T10:02:29.448Z,4.07
2018-04-17T10:05:00.568Z,4.10
2018-04-17T10:07:32.196Z,4.23
2018-04-17T10:10:02.892Z,4.23
2018-04-17T10:12:33.576Z,5.30
2018-04-17T10:15:04.660Z,4.40
2018-04-17T10:17:35.904Z,4.77
2018-04-17T10:20:06.820Z,5.37
2018-04-17T10:22:39.824Z,5.20
2018-04-17T10:25:10.480Z,4.70
2018-04-17T10:27:41.373Z,4.57
2018-04-17T10:30:12.541Z,4.40
2018-04-17T10:32:43.548Z,4.80
2018-04-17T10:35:15.064Z,4.93
2018-04-17T10:37:45.884Z,4.30
2018-04-17T10:40:17.066Z,4.90
2018-04-17T10:42:48.683Z,5.03
2018-04-17T10:45:19.389Z,4.33
2018-04-17T10:47:50.736Z,4.30
2018-04-17T10:50:21.500Z,4.03
2018-04-17T10:52:52.376Z,4.47
2018-04-17T10:55:23.047Z,4.37
2018-04-17T10:57:53.808Z,4.77
2018-04-17T11:00:24.852Z,4.23
2018-04-17T11:02:55.564Z,3.97
2018-04-17T11:05:26.241Z,4.50
2018-04-17T11:07:57.470Z,4.10
2018-04-17T11:10:28.668Z,5.00
2018-04-17T11:12:59.755Z,4.30
2018-04-17T11:15:30.452Z,4.60
2018-04-17T11:18:01.602Z,4.20
2018-04-17T11:20:33.056Z,4.40
2018-04-17T11:23:04.672Z,4.60
2018-04-17T11:25:36.128Z,4.50
2018-04-17T11:28:07.101Z,4.93
2018-04-17T11:30:38.062Z,4.83
2018-04-17T11:33:09.564Z,5.13
2018-04-17T11:35:40.288Z,4.20
2018-04-17T11:38:12.067Z,5.43
2018-04-17T11:40:42.753Z,5.37
2018-04-17T11:43:14.501Z,4.13
2018-04-17T11:45:45.195Z,4.80
2018-04-17T11:48:16.440Z,5.43
2018-04-17T11:50:47.181Z,4.80
2018-04-17T11:53:18.277Z,5.43
2018-04-17T11:55:48.983Z,5.03
2018-04-17T11:58:19.677Z,4.97
2018-04-17T12:00:50.716Z,4.67
2018-04-17T12:03:21.596Z,5.07
2018-04-17T12:05:52.371Z,4.80
2018-04-17T12:08:23.040Z,5.53
2018-04-17T12:10:53.860Z,5.93
2018-04-17T12:13:24.712Z,4.90
2018-04-17T12:15:56.424Z,4.70
2018-04-17T12:18:28.435Z,4.80
2018-04-17T12:20:59.100Z,5.07
2018-04-17T12:23:34.413Z,5.00
2018-04-17T12:26:06.139Z,5.00
2018-04-17T12:28:38.076Z,5.40
2018-04-17T12:31:09.169Z,4.93
2018-04-17T12:33:39.843Z,4.73
2018-04-17T12:36:11.468Z,4.60
2018-04-17T12:38:51.097Z,4.60
2018-04-17T12:41:21.821Z,4.70
2018-04-17T12:43:52.813Z,4.33
2018-04-17T12:46:24.245Z,4.77
2018-04-17T12:48:56.145Z,3.87
2018-04-17T12:51:26.818Z,4.13
2018-04-17T12:53:57.512Z,4.27
2018-04-17T12:56:28.214Z,4.13
2018-04-17T12:58:59.983Z,4.30
2018-04-17T13:01:30.676Z,4.37
2018-04-17T13:04:01.654Z,4.23
2018-04-17T13:06:33.108Z,4.23
2018-04-17T13:09:05.376Z,4.30
2018-04-17T13:11:36.111Z,4.50
2018-04-17T13:14:06.961Z,4.40
2018-04-17T13:16:37.658Z,3.87
2018-04-17T13:19:09.140Z,4.10
2018-04-17T13:21:39.853Z,4.60
2018-04-17T13:24:13.539Z,4.17
2018-04-17T13:26:44.196Z,4.27
2018-04-17T13:29:15.692Z,4.23
2018-04-17T13:31:46.362Z,4.27
2018-04-17T13:34:17.476Z,4.00
2018-04-17T13:36:49.005Z,4.50
2018-04-17T13:39:19.932Z,4.00
2018-04-17T13:41:50.696Z,4.00
2018-04-17T13:44:21.936Z,4.07
2018-04-17T13:46:52.651Z,3.90
2018-04-17T13:49:24.267Z,4.23
2018-04-17T13:51:55.248Z,3.90
2018-04-17T13:54:26.060Z,3.90
2018-04-17T13:56:57.540Z,4.20
2018-04-17T13:59:29.757Z,4.30
2018-04-17T14:02:00.450Z,4.30
2018-04-17T14:04:31.842Z,4.43
2018-04-17T14:07:02.551Z,4.00
2018-04-17T14:09:33.464Z,4.20
2018-04-17T14:12:04.452Z,4.20
2018-04-17T14:14:35.898Z,3.93
2018-04-17T14:17:06.579Z,3.80
2018-04-17T14:19:37.849Z,3.97
2018-04-17T14:22:08.556Z,4.20
2018-04-17T14:24:39.365Z,4.00
2018-04-17T14:27:10.825Z,4.23
2018-04-17T14:29:41.687Z,3.33
2018-04-17T14:32:12.437Z,3.83
2018-04-17T14:34:43.411Z,3.70
2018-04-17T14:37:15.192Z,3.80
2018-04-17T14:39:47.141Z,4.37
2018-04-17T14:42:18.727Z,3.53
2018-04-17T14:44:50.240Z,3.67
2018-04-17T14:47:21.712Z,4.30
2018-04-17T14:49:52.445Z,3.73
2018-04-17T14:52:23.500Z,4.20
2018-04-17T14:54:54.200Z,4.10
2018-04-17T14:57:25.660Z,4.03
2018-04-17T14:59:57.680Z,4.13
2018-04-17T15:02:28.332Z,3.93
2018-04-17T15:04:59.034Z,3.97
2018-04-17T15:07:30.176Z,4.40
2018-04-17T15:10:01.015Z,4.53
2018-04-17T15:12:31.743Z,4.33
2018-04-17T15:15:02.821Z,4.50
2018-04-17T15:17:33.532Z,4.00
2018-04-17T15:20:04.564Z,4.47
2018-04-17T15:22:35.309Z,4.87
2018-04-17T15:25:06.103Z,4.20
2018-04-17T15:27:36.765Z,4.43
2018-04-17T15:30:07.972Z,4.73
2018-04-17T15:32:39.232Z,4.23
2018-04-17T15:35:10.212Z,4.57
2018-04-17T15:37:41.275Z,5.13
2018-04-17T15:40:11.956Z,5.00
2018-04-17T15:42:42.655Z,4.80
2018-04-17T15:45:14.284Z,5.30
2018-04-17T15:47:44.965Z,5.77
2018-04-17T15:50:16.237Z,4.83
2018-04-17T15:52:46.961Z,4.40
2018-04-17T15:55:17.957Z,5.40
2018-04-17T15:57:49.740Z,5.23
2018-04-17T16:00:20.757Z,5.80
2018-04-17T16:02:52.868Z,5.27
2018-04-17T16:05:24.143Z,5.83
2018-04-17T16:07:54.877Z,5.30
2018-04-17T16:10:25.572Z,5.23
2018-04-17T16:12:56.284Z,5.63
2018-04-17T16:15:27.156Z,5.23
2018-04-17T16:17:57.832Z,5.17
2018-04-17T16:20:28.797Z,5.33
2018-04-17T16:22:59.800Z,5.83
2018-04-17T16:25:30.573Z,5.70
2018-04-17T16:28:01.772Z,6.17
2018-04-17T16:30:32.597Z,6.43
2018-04-17T16:33:03.342Z,5.83
2018-04-17T16:35:34.979Z,5.23
2018-04-17T16:38:06.609Z,6.00
2018-04-17T16:40:37.504Z,5.90
2018-04-17T16:43:08.956Z,5.50
2018-04-17T16:45:39.912Z,5.33
2018-04-17T16:48:11.350Z,5.10
2018-04-17T16:50:42.184Z,5.70
2018-04-17T16:53:13.950Z,5.10
2018-04-17T16:55:45.504Z,5.80
2018-04-17T16:58:16.200Z,5.83
2018-04-17T17:00:47.080Z,5.83
2018-04-17T17:03:17.825Z,5.30
2018-04-17T17:05:48.940Z,5.30
2018-04-17T17:08:19.648Z,5.60
2018-04-17T17:10:50.552Z,5.53
2018-04-17T17:13:21.266Z,5.20
2018-04-17T17:59:34.576Z,9.83
2018-04-17T18:02:06.472Z,8.57
2018-04-17T18:04:38.250Z,5.97
2018-04-17T18:07:08.976Z,5.27
2018-04-17T18:09:39.936Z,5.90
2018-04-17T18:12:10.611Z,4.90
2018-04-17T18:14:41.427Z,5.00
2018-04-17T18:17:13.008Z,5.43
2018-04-17T18:19:43.705Z,5.37
2018-04-17T18:22:15.142Z,5.43
2018-04-17T18:24:45.804Z,5.80
2018-04-17T18:27:16.507Z,6.23
2018-04-17T18:29:47.468Z,5.80
2018-04-17T18:32:18.124Z,5.83
2018-04-17T18:34:48.977Z,7.13
2018-04-17T18:37:19.707Z,7.97
2018-04-17T18:39:50.467Z,7.47
2018-04-17T18:42:21.188Z,6.60
2018-04-17T18:44:52.213Z,5.90
2018-04-17T18:47:22.925Z,5.70
2018-04-17T18:49:54.057Z,6.50
2018-04-17T18:52:24.838Z,6.07
2018-04-17T18:54:55.515Z,5.20
2018-04-17T18:57:27.012Z,5.50
2018-04-17T18:59:57.812Z,5.63
2018-04-17T19:02:28.507Z,4.97
2018-04-17T19:05:00.150Z,5.63
2018-04-17T19:07:30.833Z,5.77
2018-04-17T19:10:01.545Z,5.67
2018-04-17T19:12:33.069Z,5.50
2018-04-17T19:15:04.079Z,6.17
2018-04-17T19:17:34.773Z,5.67
2018-04-17T19:20:06.808Z,6.40
2018-04-17T19:22:37.514Z,6.90
2018-04-17T19:25:08.504Z,6.33
2018-04-17T19:27:39.945Z,6.40
2018-04-17T19:30:10.880Z,6.47
2018-04-17T19:32:41.853Z,6.03
2018-04-17T19:35:12.678Z,6.03
2018-04-17T19:37:43.428Z,6.30
2018-04-17T19:40:14.891Z,6.10
2018-04-17T19:42:45.848Z,6.03
2018-04-17T19:45:16.909Z,7.07
2018-04-17T19:47:47.587Z,6.67
2018-04-17T19:50:19.049Z,6.63
2018-04-17T19:52:49.881Z,7.13
2018-04-17T19:55:20.901Z,7.07
2018-04-17T19:57:52.400Z,7.87
2018-04-17T20:00:23.149Z,6.57
2018-04-17T20:02:54.117Z,7.77
2018-04-17T20:05:25.590Z,8.90
2018-04-17T20:07:56.193Z,8.07
2018-04-17T20:10:27.800Z,8.87
2018-04-17T20:12:58.392Z,8.50
2018-04-17T20:15:29.676Z,9.60
2018-04-17T20:18:00.379Z,8.30
2018-04-17T20:20:31.446Z,8.70
2018-04-17T20:23:02.128Z,8.43
2018-04-17T20:25:33.628Z,7.80
2018-04-17T20:28:04.371Z,7.33
2018-04-17T20:30:35.072Z,6.83
2018-04-17T20:33:06.150Z,6.40
2018-04-17T20:35:37.160Z,6.90
2018-04-17T20:38:07.745Z,6.80
2018-04-17T20:40:38.420Z,6.23
2018-04-17T20:43:09.299Z,6.80
2018-04-17T20:45:40.444Z,6.37
2018-04-17T20:48:11.163Z,6.60
2018-04-17T20:50:42.281Z,6.80
2018-04-17T20:53:13.129Z,6.53
2018-04-17T20:55:44.316Z,6.63
2018-04-17T20:58:15.937Z,6.47
2018-04-17T21:00:46.756Z,6.67
2018-04-17T21:03:17.800Z,6.30
2018-04-17T21:05:48.820Z,6.97
2018-04-17T21:08:19.663Z,6.70
2018-04-17T21:10:50.796Z,6.50
2018-04-17T21:13:21.652Z,6.93
2018-04-17T21:15:52.900Z,6.83
2018-04-17T21:18:23.749Z,6.03
2018-04-17T21:20:54.436Z,6.47
2018-04-17T21:23:25.225Z,7.07
2018-04-17T21:25:56.205Z,6.10
2018-04-17T21:28:27.644Z,6.33
2018-04-17T21:30:59.081Z,6.47
2018-04-17T21:33:30.800Z,6.63
2018-04-17T21:36:01.663Z,7.93
2018-04-17T21:38:32.260Z,6.93
2018-04-17T21:41:03.100Z,6.27
2018-04-17T21:43:33.801Z,9.70
2018-04-17T21:46:05.085Z,6.63
2018-04-17T21:48:35.811Z,7.10
2018-04-17T21:51:06.493Z,7.70
2018-04-17T21:53:37.916Z,7.83
2018-04-17T21:56:08.612Z,7.77
2018-04-17T21:58:39.680Z,7.10
2018-04-17T22:01:10.356Z,8.00
2018-04-17T22:03:41.249Z,7.73
2018-04-17T22:06:12.076Z,7.60
2018-04-17T22:08:42.825Z,9.60
2018-04-17T22:11:13.804Z,8.13
2018-04-17T22:13:45.375Z,8.70
2018-04-17T22:16:16.530Z,8.77
2018-04-17T22:18:47.244Z,9.80
2018-04-17T22:21:18.308Z,9.20
2018-04-17T22:23:49.403Z,8.50
2018-04-17T22:26:21.059Z,9.67
2018-04-17T22:28:52.492Z,10.33
2018-04-17T22:31:23.612Z,9.87
2018-04-17T22:33:54.364Z,9.90
2018-04-17T22:36:25.096Z,10.57
2018-04-17T22:38:55.784Z,9.57
2018-04-17T22:41:26.908Z,9.80
2018-04-17T22:43:57.730Z,9.60
2018-04-17T22:46:29.433Z,9.53
2018-04-17T22:49:00.541Z,10.47
2018-04-17T22:51:31.540Z,10.27
2018-04-17T22:54:03.160Z,10.57
2018-04-17T22:56:33.975Z,10.10
2018-04-17T22:59:04.976Z,10.30
2018-04-17T23:01:36.288Z,10.10
2018-04-17T23:04:06.964Z,10.37
2018-04-17T23:06:37.676Z,10.20
2018-04-17T23:09:08.629Z,9.47
2018-04-17T23:11:40.236Z,10.30
2018-04-17T23:14:10.897Z,14.43
2018-04-17T23:16:42.188Z,11.67
2018-04-17T23:19:12.853Z,10.53
2018-04-17T23:21:43.580Z,10.93
2018-04-17T23:24:14.650Z,10.77
2018-04-17T23:26:46.265Z,10.23
2018-04-17T23:29:16.977Z,10.73
2018-04-17T23:31:49.068Z,11.63
2018-04-17T23:34:19.844Z,11.13
2018-04-17T23:36:51.408Z,10.53
2018-04-17T23:39:22.407Z,11.27
2018-04-17T23:41:53.300Z,11.03
2018-04-17T23:44:24.751Z,11.43
2018-04-17T23:46:55.871Z,11.03
2018-04-17T23:49:26.540Z,10.50
2018-04-17T23:51:57.256Z,12.13
2018-04-17T23:54:28.977Z,11.00
2018-04-17T23:56:59.965Z,10.93
2018-04-17T23:59:30.751Z,11.03
